Time;durP1;ratioP1;P1;durP2;ratioP2;P2;SDS_P1;SDS_P2;PMS_P1;PMS_P2;Temp;Humidity;BMP_temperature;BMP_pressure;BME280_temperature;BME280_humidity;BME280_pressure;Samples;Min_cycle;Max_cycle;Signal;HPM_P1;HPM_P2
2022/04/27 00:00:58;;;;;;;10.60;9.80;;;;;;;10.97;86.76;98984.00;4985981;28;102665;-71
2022/04/27 00:03:26;;;;;;;13.25;12.25;;;;;;;10.60;85.91;98990.09;4983993;28;103797;-71
2022/04/27 00:05:54;;;;;;;11.97;11.00;;;;;;;10.81;86.77;98987.75;4984659;28;103591;-71
2022/04/27 00:08:25;;;;;;;8.82;8.23;;;;;;;11.07;85.65;98985.03;4992447;28;103217;-71
2022/04/27 00:10:54;;;;;;;11.75;10.85;;;;;;;10.97;84.63;98978.69;4984892;28;102597;-71
2022/04/27 00:13:22;;;;;;;9.23;8.52;;;;;;;11.06;83.91;98978.03;4989606;28;103367;-70
2022/04/27 00:15:50;;;;;;;9.95;9.25;;;;;;;11.19;83.83;98978.03;4986268;28;104165;-71
2022/04/27 00:18:21;;;;;;;12.63;11.63;;;;;;;10.96;84.12;98982.28;4984996;28;104118;-71
2022/04/27 00:20:49;;;;;;;13.20;12.20;;;;;;;10.83;84.73;98976.16;4994739;28;102969;-71
2022/04/27 00:23:17;;;;;;;14.77;13.63;;;;;;;10.61;85.95;98980.38;5000836;28;104712;-62
2022/04/27 00:25:47;;;;;;;13.52;12.52;;;;;;;10.85;85.70;98973.41;4986151;28;104196;-63
2022/04/27 00:28:17;;;;;;;13.05;12.05;;;;;;;10.81;85.18;98978.03;4984308;28;103290;-62
2022/04/27 00:30:45;;;;;;;14.18;13.07;;;;;;;10.89;84.03;98965.13;4987164;28;102618;-62
2022/04/27 00:33:13;;;;;;;15.98;14.75;;;;;;;10.72;84.55;98978.66;4981618;28;103882;-62
2022/04/27 00:35:41;;;;;;;13.32;12.32;;;;;;;11.01;84.17;98974.03;4986361;28;104194;-62
2022/04/27 00:38:09;;;;;;;16.02;14.80;;;;;;;10.65;86.29;98981.84;4988343;28;103223;-72
2022/04/27 00:40:37;;;;;;;14.30;13.20;;;;;;;10.84;85.85;98972.56;4988655;28;102729;-71
2022/04/27 00:43:05;;;;;;;17.50;16.10;;;;;;;10.60;86.17;98974.25;4987440;28;103658;-71
2022/04/27 00:45:34;;;;;;;17.25;15.85;;;;;;;10.67;86.39;98975.50;4986962;28;103436;-63
2022/04/27 00:48:02;;;;;;;18.48;16.98;;;;;;;10.52;87.34;98976.56;4997620;28;104194;-71
2022/04/27 00:50:33;;;;;;;17.08;15.73;;;;;;;10.64;87.70;98974.88;5001482;28;102922;-61
2022/04/27 00:53:01;;;;;;;16.50;15.20;;;;;;;10.54;88.31;98976.44;4982516;28;104997;-62
2022/04/27 00:55:30;;;;;;;14.70;13.50;;;;;;;10.82;86.64;98985.03;4989400;28;103858;-62
2022/04/27 00:58:02;;;;;;;17.77;16.27;;;;;;;10.74;86.59;98976.78;4983758;28;103104;-61
2022/04/27 01:00:30;;;;;;;17.43;16.03;;;;;;;10.84;85.08;98977.84;4985526;28;102653;-62
2022/04/27 01:03:01;;;;;;;23.40;21.40;;;;;;;9.66;91.43;98992.81;4988193;28;104141;-62
2022/04/27 01:05:37;;;;;;;23.83;21.83;;;;;;;9.66;93.31;99000.72;4990117;28;103259;-62
2022/04/27 01:08:05;;;;;;;22.48;20.48;;;;;;;9.84;93.40;99004.84;4988034;28;103581;-71
2022/04/27 01:10:34;;;;;;;21.73;19.92;;;;;;;10.26;91.27;99001.22;4991661;28;104126;-71
2022/04/27 01:13:03;;;;;;;15.73;14.53;;;;;;;10.66;89.32;99002.91;4986268;28;103956;-72
2022/04/27 01:15:33;;;;;;;17.50;16.20;;;;;;;10.74;87.96;99003.22;4991331;28;105963;-72
2022/04/27 01:18:03;;;;;;;20.30;18.60;;;;;;;10.69;87.14;99007.97;4992836;28;104984;-72
2022/04/27 01:20:37;;;;;;;16.02;14.73;;;;;;;10.90;87.70;99009.13;4982782;28;102645;-72
2022/04/27 01:23:07;;;;;;;15.32;14.02;;;;;;;11.07;85.90;98995.59;4983197;28;103149;-72
2022/04/27 01:25:52;;;;;;;17.90;16.50;;;;;;;11.06;85.17;99011.56;4988159;28;103665;-72
2022/04/27 01:28:23;;;;;;;17.35;15.95;;;;;;;11.12;85.83;99002.34;4985133;28;103324;-72
2022/04/27 01:30:58;;;;;;;19.48;17.88;;;;;;;11.13;85.12;99009.34;4984937;28;102786;-72
2022/04/27 01:33:27;;;;;;;24.85;22.75;;;;;;;10.76;86.55;99009.22;4982634;28;104409;-63
2022/04/27 01:35:59;;;;;;;23.30;21.30;;;;;;;10.99;86.24;99005.00;4994818;28;106098;-62
2022/04/27 01:38:27;;;;;;;25.50;23.23;;;;;;;10.64;88.30;99004.78;4988936;28;103724;-62
2022/04/27 01:40:56;;;;;;;24.30;22.27;;;;;;;10.79;87.82;99006.38;4991216;28;102746;-62
2022/04/27 01:43:24;;;;;;;24.47;22.43;;;;;;;10.73;88.13;99005.94;4984289;28;102805;-61
2022/04/27 01:45:55;;;;;;;25.27;22.97;;;;;;;10.67;88.81;99015.13;4990864;28;103496;-71
2022/04/27 01:48:23;;;;;;;25.13;23.02;;;;;;;10.72;87.62;99015.66;4980845;28;106230;-71
2022/04/27 01:50:51;;;;;;;23.40;21.33;;;;;;;10.88;87.61;99008.41;4991174;28;102955;-71
2022/04/27 01:56:07;;;;;;;21.98;20.17;;;;;;;11.09;86.21;99006.06;5006981;28;103319;-71
2022/04/27 01:58:41;;;;;;;26.37;23.97;;;;;;;10.76;86.98;99006.59;4993643;28;105385;-71
2022/04/27 02:01:11;;;;;;;24.33;22.23;;;;;;;10.83;87.42;99007.88;4977605;28;102879;-71
2022/04/27 02:03:41;;;;;;;21.83;20.02;;;;;;;10.90;86.68;99014.44;4991864;28;103087;-62
2022/04/27 02:06:16;;;;;;;23.27;21.27;;;;;;;11.06;87.56;99014.19;4984660;28;103680;-72
2022/04/27 02:08:46;;;;;;;26.85;24.55;;;;;;;10.72;87.14;99010.38;4978829;28;103252;-61
2022/04/27 02:11:16;;;;;;;23.73;21.73;;;;;;;10.95;87.69;99017.59;4988744;28;102920;-72
2022/04/27 02:13:56;;;;;;;25.05;22.95;;;;;;;10.95;86.89;99017.59;4999167;28;103800;-71
2022/04/27 02:16:29;;;;;;;23.48;21.48;;;;;;;11.08;86.13;99012.31;5003102;28;104380;-72
2022/04/27 02:18:58;;;;;;;27.10;24.65;;;;;;;10.78;88.14;99017.06;4984061;28;105945;-72
2022/04/27 02:21:26;;;;;;;26.30;24.00;;;;;;;10.67;88.68;99019.56;4983300;28;103246;-62
2022/04/27 02:24:00;;;;;;;24.70;22.60;;;;;;;10.87;87.89;99022.56;5001058;28;102757;-62
2022/04/27 02:26:28;;;;;;;22.40;20.55;;;;;;;10.93;87.81;99022.16;4988002;28;104336;-62
2022/04/27 02:28:58;;;;;;;22.75;20.85;;;;;;;10.92;87.99;99017.78;4981086;28;104212;-72
2022/04/27 02:31:31;;;;;;;25.33;23.13;;;;;;;10.55;88.89;99026.56;4983643;28;102800;-62
2022/04/27 02:34:00;;;;;;;21.48;19.63;;;;;;;10.98;88.34;99025.31;4986827;28;104066;-62
2022/04/27 02:36:28;;;;;;;22.52;20.55;;;;;;;11.05;87.01;99021.31;4989530;28;105367;-62
2022/04/27 02:38:56;;;;;;;22.27;20.43;;;;;;;10.90;87.09;99018.84;4991387;28;104149;-62
2022/04/27 02:41:25;;;;;;;21.73;19.83;;;;;;;10.88;86.50;99021.63;4997585;28;102861;-62
2022/04/27 02:43:54;;;;;;;16.90;15.60;;;;;;;11.11;86.72;99027.13;4982255;28;102854;-63
2022/04/27 02:46:23;;;;;;;17.50;16.10;;;;;;;11.16;86.24;99022.34;4983045;28;103751;-62
2022/04/27 02:51:52;;;;;;;21.93;20.03;;;;;;;10.85;86.30;99031.56;4999406;28;102765;-62
2022/04/27 02:54:46;;;;;;;22.58;20.67;;;;;;;10.68;88.47;99030.06;4984992;28;104030;-62
2022/04/27 02:57:16;;;;;;;18.58;17.08;;;;;;;10.85;88.92;99034.19;4979830;28;103879;-63
2022/04/27 02:59:45;;;;;;;19.37;17.77;;;;;;;10.90;88.21;99034.72;4990122;28;103392;-62
2022/04/27 03:02:14;;;;;;;23.38;21.38;;;;;;;10.74;88.03;99029.66;4988345;28;102880;-72
2022/04/27 03:04:46;;;;;;;19.30;17.67;;;;;;;10.61;89.86;99027.94;4985248;28;102834;-72
2022/04/27 03:07:14;;;;;;;24.40;22.30;;;;;;;9.97;91.75;99037.41;5000989;28;108289;-63
2022/04/27 03:09:50;;;;;;;23.15;21.15;;;;;;;10.13;92.37;99045.22;4986128;28;103342;-72
2022/04/27 03:12:19;;;;;;;19.60;17.92;;;;;;;10.44;91.88;99043.09;4994698;28;102714;-72
2022/04/27 03:14:48;;;;;;;21.15;19.35;;;;;;;10.61;88.74;99036.69;4980507;28;102689;-72
2022/04/27 03:17:17;;;;;;;22.03;20.13;;;;;;;10.53;90.53;99039.00;4988881;28;105824;-72
2022/04/27 03:19:45;;;;;;;21.17;19.38;;;;;;;10.50;89.37;99041.84;4998371;28;104460;-72
2022/04/27 03:22:14;;;;;;;21.17;19.33;;;;;;;10.02;92.42;99039.75;4981165;28;102939;-72
2022/04/27 03:24:42;;;;;;;24.00;21.77;;;;;;;9.86;94.95;99040.75;4980511;28;102845;-70
2022/04/27 03:27:19;;;;;;;21.05;19.25;;;;;;;10.18;94.22;99037.84;4982002;28;104539;-72
2022/04/27 03:29:48;;;;;;;20.63;18.83;;;;;;;10.16;93.63;99042.38;4988427;28;104864;-72
2022/04/27 03:32:20;;;;;;;19.38;17.77;;;;;;;9.97;94.17;99041.81;4983641;28;102627;-72
2022/04/27 03:34:52;;;;;;;19.65;18.05;;;;;;;9.83;95.49;99046.22;4987169;28;104049;-72
2022/04/27 03:37:24;;;;;;;19.50;17.80;;;;;;;10.05;95.02;99047.47;4978340;28;105419;-72
2022/04/27 03:39:52;;;;;;;19.90;18.15;;;;;;;9.60;96.86;99046.81;4985041;28;103503;-72
2022/04/27 03:42:24;;;;;;;19.38;17.77;;;;;;;9.47;97.99;99063.50;4981617;28;102596;-72
2022/04/27 03:44:59;;;;;;;18.13;16.60;;;;;;;9.79;97.32;99049.16;4991325;28;104153;-72
2022/04/27 03:47:32;;;;;;;19.98;18.17;;;;;;;9.66;95.96;99046.44;5000135;28;104045;-72
2022/04/27 03:50:04;;;;;;;16.48;15.07;;;;;;;10.06;94.93;99051.81;4979064;28;103087;-72
2022/04/27 03:52:39;;;;;;;18.13;16.42;;;;;;;9.84;96.43;99052.34;5005608;28;102712;-71
2022/04/27 03:55:11;;;;;;;14.93;13.57;;;;;;;10.29;94.90;99056.47;4981662;28;103734;-66
2022/04/27 03:57:44;;;;;;;19.15;17.45;;;;;;;9.72;96.07;99056.59;4996244;28;103806;-69
2022/04/27 04:00:13;;;;;;;15.23;14.02;;;;;;;10.18;95.19;99066.88;4985938;28;104433;-63
2022/04/27 04:02:45;;;;;;;13.63;12.57;;;;;;;10.50;92.44;99062.16;4985352;28;102929;-63
2022/04/27 04:05:14;;;;;;;12.15;11.25;;;;;;;10.71;90.97;99064.19;4987782;28;103134;-63
2022/04/27 04:07:42;;;;;;;10.50;9.70;;;;;;;10.95;89.35;99061.69;4981788;28;104128;-63
2022/04/27 04:10:10;;;;;;;11.75;10.85;;;;;;;11.12;88.39;99065.81;4984280;28;104134;-63
2022/04/27 04:12:41;;;;;;;11.40;10.50;;;;;;;11.22;88.03;99062.47;4982726;28;102821;-68
2022/04/27 04:15:37;;;;;;;16.83;15.43;;;;;;;10.48;89.94;99070.16;4982528;28;102803;-63
2022/04/27 04:18:23;;;;;;;17.52;16.02;;;;;;;9.97;93.62;99069.06;4983016;28;103647;-69
2022/04/27 04:21:04;;;;;;;16.45;15.05;;;;;;;10.21;93.93;99069.34;4980135;28;103217;-69
2022/04/27 04:23:41;;;;;;;19.65;17.95;;;;;;;9.77;95.24;99082.69;4988442;28;103169;-63
2022/04/27 04:28:59;;;;;;;18.33;16.83;;;;;;;9.91;93.78;99095.84;4979951;28;104204;-63
2022/04/27 04:31:30;;;;;;;19.13;17.52;;;;;;;9.90;95.63;99104.75;4980664;28;105634;-72
2022/04/27 04:34:21;;;;;;;17.73;16.33;;;;;;;10.21;93.78;99098.38;4974719;28;104058;-63
2022/04/27 04:36:52;;;;;;;18.10;16.58;;;;;;;10.02;94.11;99097.84;4990280;28;104146;-63
2022/04/27 04:39:20;;;;;;;20.23;18.43;;;;;;;9.58;96.64;99104.09;4982735;28;103119;-63
2022/04/27 04:41:48;;;;;;;20.70;18.90;;;;;;;9.38;98.46;99115.03;4985820;28;105413;-63
2022/04/27 04:44:16;;;;;;;17.98;16.48;;;;;;;10.02;96.56;99113.69;4978884;28;103104;-72
2022/04/27 04:47:04;;;;;;;18.95;17.35;;;;;;;9.85;97.58;99109.47;4992288;28;103310;-70
2022/04/27 04:49:51;;;;;;;19.65;17.90;;;;;;;9.88;95.55;99120.66;4981857;28;103886;-72
2022/04/27 04:52:57;;;;;;;15.82;14.52;;;;;;;10.41;94.84;99122.53;4976775;28;103052;-63
2022/04/27 04:55:45;;;;;;;17.63;16.23;;;;;;;10.58;91.54;99124.09;4979006;28;103178;-63
2022/04/27 04:58:46;;;;;;;17.98;16.58;;;;;;;10.64;91.87;99131.59;4983672;28;104593;-63
2022/04/27 05:01:40;;;;;;;16.27;14.97;;;;;;;10.75;91.06;99126.44;4979413;28;103217;-63
2022/04/27 05:04:30;;;;;;;21.08;19.17;;;;;;;10.06;93.23;99133.63;4965942;28;103333;-63
2022/04/27 05:07:31;;;;;;;19.02;17.42;;;;;;;10.50;92.12;99136.94;4934752;28;102838;-62
2022/04/27 05:10:18;;;;;;;16.77;15.38;;;;;;;10.82;90.39;99138.34;4984733;28;104249;-72
2022/04/27 05:13:25;;;;;;;18.10;16.50;;;;;;;10.96;89.03;99150.63;4988538;28;103340;-72
2022/04/27 05:16:19;;;;;;;17.20;15.70;;;;;;;11.10;88.67;99144.41;4955133;28;103281;-72
2022/04/27 05:19:06;;;;;;;19.85;18.00;;;;;;;10.60;90.34;99151.25;4980758;28;102713;-72
2022/04/27 05:21:57;;;;;;;20.13;18.43;;;;;;;10.52;92.41;99150.91;4985910;28;103178;-72
2022/04/27 05:24:37;;;;;;;20.95;19.15;;;;;;;10.33;92.43;99150.41;4999426;28;103295;-72
2022/04/27 05:27:28;;;;;;;21.23;19.33;;;;;;;10.36;93.32;99151.03;4980398;28;103947;-71
2022/04/27 05:33:23;;;;;;;24.35;22.13;;;;;;;9.79;96.71;99159.97;4983696;28;104197;-72
2022/04/27 05:36:00;;;;;;;22.20;20.27;;;;;;;10.09;96.63;99163.34;4977091;28;105789;-71
2022/04/27 05:38:41;;;;;;;22.23;20.17;;;;;;;10.11;94.45;99158.81;4983285;28;105353;-63
2022/04/27 05:41:28;;;;;;;19.23;17.63;;;;;;;10.46;93.08;99172.44;4978194;28;102958;-63
2022/04/27 05:44:07;;;;;;;20.75;18.95;;;;;;;10.58;91.70;99168.16;5007076;28;102764;-72
2022/04/27 05:46:42;;;;;;;22.40;20.40;;;;;;;10.40;90.73;99178.97;4984819;28;105854;-63
2022/04/27 05:49:16;;;;;;;23.77;21.67;;;;;;;10.04;94.05;99177.78;4981446;28;104134;-62
2022/04/27 05:51:56;;;;;;;23.85;21.77;;;;;;;10.42;92.67;99185.00;4975008;28;102653;-72
2022/04/27 05:54:34;;;;;;;24.35;22.17;;;;;;;10.51;91.53;99188.00;4988362;28;102922;-71
2022/04/27 05:57:20;;;;;;;24.37;22.23;;;;;;;10.32;92.57;99196.25;4990404;28;103720;-72
2022/04/27 06:00:08;;;;;;;23.57;21.40;;;;;;;10.63;91.89;99188.06;4982379;28;102978;-71
2022/04/27 06:02:58;;;;;;;22.40;20.37;;;;;;;10.77;90.59;99190.66;4982266;28;102788;-71
2022/04/27 06:05:29;;;;;;;24.60;22.30;;;;;;;10.81;90.35;99196.56;4982449;28;102950;-72
2022/04/27 06:07:58;;;;;;;27.45;24.88;;;;;;;10.32;92.95;99197.09;4985829;28;102694;-71
2022/04/27 06:10:28;;;;;;;24.42;22.30;;;;;;;10.34;93.12;99199.63;4980471;28;105235;-63
2022/04/27 06:13:00;;;;;;;22.60;20.70;;;;;;;10.76;91.74;99201.31;4984623;28;103900;-62
2022/04/27 06:15:36;;;;;;;24.73;22.50;;;;;;;10.60;90.11;99214.69;4985193;28;104002;-63
2022/04/27 06:18:11;;;;;;;25.13;22.92;;;;;;;10.53;91.99;99205.44;4985236;28;105714;-63
2022/04/27 06:20:42;;;;;;;23.33;21.33;;;;;;;10.37;91.36;99215.28;5005856;28;103428;-62
2022/04/27 06:23:15;;;;;;;18.13;16.55;;;;;;;10.64;92.06;99215.34;4983551;28;102798;-62
2022/04/27 06:25:49;;;;;;;17.27;15.88;;;;;;;10.73;92.91;99215.56;4995603;28;102856;-62
2022/04/27 06:28:23;;;;;;;19.10;17.38;;;;;;;10.48;92.49;99210.16;4986841;28;105996;-62
2022/04/27 06:30:53;;;;;;;18.75;17.15;;;;;;;10.44;93.76;99220.06;4985794;28;105953;-62
2022/04/27 06:33:23;;;;;;;17.83;16.25;;;;;;;10.39;95.82;99221.31;4985582;28;102710;-63
2022/04/27 06:35:52;;;;;;;17.65;16.15;;;;;;;10.22;94.24;99216.25;4982171;28;103662;-62
2022/04/27 06:38:20;;;;;;;16.97;15.57;;;;;;;10.55;94.07;99224.69;4997411;28;104311;-63
2022/04/27 06:41:19;;;;;;;17.77;16.20;;;;;;;10.23;93.96;99223.22;5001375;28;103193;-63
2022/04/27 06:44:07;;;;;;;17.15;15.65;;;;;;;10.13;95.04;99227.41;4984414;28;103071;-63
2022/04/27 06:46:53;;;;;;;15.50;14.23;;;;;;;10.31;94.39;99231.50;4983269;28;104047;-63
2022/04/27 06:49:40;;;;;;;14.82;13.60;;;;;;;10.30;95.15;99224.56;4986283;28;104141;-72
2022/04/27 06:52:45;;;;;;;15.15;13.85;;;;;;;10.10;96.14;99238.13;4928867;28;103481;-63
2022/04/27 06:55:33;;;;;;;14.55;13.35;;;;;;;10.15;94.83;99246.63;4978959;28;103076;-63
2022/04/27 06:58:26;;;;;;;15.35;13.85;;;;;;;10.03;96.23;99247.34;4982738;28;102632;-63
2022/04/27 07:01:03;;;;;;;15.17;13.77;;;;;;;10.47;93.32;99250.72;4992603;28;104163;-63
2022/04/27 07:03:38;;;;;;;14.40;13.20;;;;;;;10.15;95.41;99255.41;4987357;28;104083;-64
2022/04/27 07:06:08;;;;;;;12.68;11.68;;;;;;;10.93;92.39;99257.44;4984171;28;102804;-63
2022/04/27 07:08:36;;;;;;;11.80;10.87;;;;;;;11.34;90.38;99253.88;4988620;28;103662;-63
2022/04/27 07:11:04;;;;;;;12.77;11.70;;;;;;;10.99;91.72;99262.31;4981858;28;103621;-72
2022/04/27 07:13:34;;;;;;;12.50;11.45;;;;;;;11.23;90.15;99265.13;4980912;28;103283;-72
2022/04/27 07:16:03;;;;;;;10.93;10.02;;;;;;;11.19;91.25;99273.38;5000117;27;103488;-72
2022/04/27 07:18:31;;;;;;;12.68;11.57;;;;;;;10.57;92.58;99275.63;4985921;28;104082;-73
2022/04/27 07:21:00;;;;;;;12.15;11.15;;;;;;;10.84;92.26;99271.22;4987053;28;104460;-72
2022/04/27 07:23:28;;;;;;;9.73;8.90;;;;;;;11.67;89.50;99270.13;4998401;28;103182;-72
2022/04/27 07:25:56;;;;;;;11.95;10.95;;;;;;;11.45;87.49;99272.50;5001516;28;102652;-73
2022/04/27 07:28:24;;;;;;;11.98;11.07;;;;;;;11.45;88.93;99275.16;5009335;28;102647;-72
2022/04/27 07:30:54;;;;;;;10.50;9.63;;;;;;;12.31;85.93;99271.00;4985493;28;104290;-71
2022/04/27 07:33:23;;;;;;;14.02;12.82;;;;;;;12.14;83.45;99280.13;5002561;28;103297;-72
2022/04/27 07:35:51;;;;;;;11.80;10.80;;;;;;;12.08;85.07;99276.09;4986580;28;103019;-72
2022/04/27 07:38:22;;;;;;;9.70;8.90;;;;;;;13.16;83.03;99266.56;5001954;28;104002;-72
2022/04/27 07:40:50;;;;;;;10.65;9.75;;;;;;;12.87;80.53;99275.75;5004855;28;103318;-72
2022/04/27 07:43:18;;;;;;;10.65;9.75;;;;;;;12.49;82.82;99269.72;4998979;28;103767;-72
2022/04/27 07:45:49;;;;;;;9.88;8.98;;;;;;;13.23;81.65;99273.06;5002989;28;102679;-72
2022/04/27 07:48:20;;;;;;;8.68;7.97;;;;;;;14.41;76.00;99274.59;5002519;28;102894;-72
2022/04/27 07:50:48;;;;;;;9.80;9.00;;;;;;;13.43;76.81;99273.41;5003100;28;104651;-72
2022/04/27 07:53:17;;;;;;;8.35;7.72;;;;;;;14.18;74.43;99277.31;5003911;28;103952;-72
2022/04/27 07:55:45;;;;;;;8.07;7.47;;;;;;;14.70;72.72;99285.59;5004227;28;103308;-72
2022/04/27 07:58:13;;;;;;;8.80;8.10;;;;;;;13.13;75.33;99288.00;5004044;28;104180;-72
2022/04/27 08:00:41;;;;;;;8.45;7.75;;;;;;;13.58;75.51;99288.19;5006307;28;106136;-72
2022/04/27 08:03:09;;;;;;;7.97;7.28;;;;;;;13.90;72.80;99289.22;4985416;28;103205;-73
2022/04/27 08:05:39;;;;;;;7.30;6.70;;;;;;;14.34;73.40;99299.13;4988738;28;102890;-72
2022/04/27 08:08:08;;;;;;;8.23;7.53;;;;;;;13.64;76.29;99295.69;4987182;28;104181;-72
2022/04/27 08:10:37;;;;;;;7.60;7.00;;;;;;;14.26;73.12;99296.19;5005651;28;104191;-72
2022/04/27 08:13:05;;;;;;;8.35;7.65;;;;;;;13.74;72.07;99304.66;5006682;28;103258;-72
2022/04/27 08:15:33;;;;;;;8.45;7.85;;;;;;;13.89;74.04;99300.84;5005677;28;102737;-72
2022/04/27 08:18:03;;;;;;;8.38;7.68;;;;;;;14.14;72.12;99303.31;4991628;28;103999;-72
2022/04/27 08:23:24;;;;;;;8.77;8.02;;;;;;;13.43;73.34;99316.72;5005605;28;103170;-72
2022/04/27 08:25:55;;;;;;;9.02;8.32;;;;;;;13.64;76.70;99314.28;5008664;28;102807;-72
2022/04/27 08:28:23;;;;;;;9.32;8.52;;;;;;;12.91;76.58;99311.72;5005971;28;102718;-72
2022/04/27 08:30:51;;;;;;;8.73;7.97;;;;;;;13.24;73.18;99316.38;5011067;28;104290;-64
2022/04/27 08:33:20;;;;;;;8.70;8.00;;;;;;;13.41;75.53;99320.44;5005347;28;103287;-64
2022/04/27 08:35:48;;;;;;;7.18;6.57;;;;;;;14.19;73.64;99319.72;5000380;28;102715;-64
2022/04/27 08:38:37;;;;;;;9.20;8.45;;;;;;;11.86;79.10;99323.53;5004726;28;103385;-64
2022/04/27 08:41:06;;;;;;;7.82;7.22;;;;;;;13.10;74.91;99329.81;4988846;28;103574;-63
2022/04/27 08:43:34;;;;;;;7.90;7.30;;;;;;;13.35;71.16;99335.88;5004905;28;103220;-64
2022/04/27 08:46:03;;;;;;;7.03;6.53;;;;;;;14.49;71.37;99322.69;5011513;28;102701;-64
2022/04/27 08:48:32;;;;;;;6.70;6.20;;;;;;;14.65;67.94;99319.69;5006647;28;102980;-63
2022/04/27 08:51:03;;;;;;;7.15;6.50;;;;;;;14.30;68.03;99330.38;4986388;28;103181;-63
2022/04/27 08:53:32;;;;;;;6.93;6.37;;;;;;;13.84;72.54;99326.88;5003924;28;103522;-64
2022/04/27 08:56:01;;;;;;;6.60;6.00;;;;;;;14.95;68.96;99327.00;5009229;28;102691;-64
2022/04/27 08:58:29;;;;;;;6.13;5.72;;;;;;;14.48;68.90;99328.97;5004723;28;104419;-64
2022/04/27 09:01:09;;;;;;;6.55;6.05;;;;;;;13.41;72.17;99331.06;5008926;28;103861;-64
2022/04/27 09:03:38;;;;;;;7.13;6.53;;;;;;;13.88;70.31;99338.97;5009403;28;103214;-64
2022/04/27 09:06:10;;;;;;;7.45;6.85;;;;;;;12.89;71.56;99340.13;5008614;28;102918;-64
2022/04/27 09:08:43;;;;;;;6.60;6.10;;;;;;;13.61;71.83;99335.75;5009427;28;103760;-64
2022/04/27 09:11:19;;;;;;;7.80;7.10;;;;;;;13.25;71.07;99339.28;4992551;28;104349;-64
2022/04/27 09:13:51;;;;;;;7.78;7.18;;;;;;;12.82;73.17;99344.19;5004728;28;103232;-64
2022/04/27 09:16:21;;;;;;;7.57;6.97;;;;;;;12.43;71.75;99347.00;5003277;28;104956;-64
2022/04/27 09:22:01;;;;;;;7.00;6.43;;;;;;;12.87;74.00;99352.66;4985203;28;103552;-64
2022/04/27 09:24:31;;;;;;;7.07;6.47;;;;;;;13.38;71.64;99341.91;4979372;28;103236;-63
2022/04/27 09:27:16;;;;;;;6.38;5.88;;;;;;;13.94;68.59;99343.81;4999665;28;102908;-63
2022/04/27 09:29:44;;;;;;;6.78;6.18;;;;;;;13.16;71.21;99340.84;5004087;28;102730;-63
2022/04/27 09:32:17;;;;;;;5.90;5.45;;;;;;;14.43;69.14;99340.91;5007079;28;103341;-64
2022/04/27 09:34:49;;;;;;;6.20;5.70;;;;;;;14.24;67.55;99341.47;5005596;28;103222;-63
2022/04/27 09:37:19;;;;;;;7.03;6.43;;;;;;;13.32;69.30;99346.72;5001750;28;103781;-64
2022/04/27 09:40:03;;;;;;;6.72;6.22;;;;;;;14.51;69.26;99335.88;5000908;28;104090;-64
2022/04/27 09:42:34;;;;;;;5.75;5.30;;;;;;;13.27;68.81;99346.19;5009527;28;104351;-64
2022/04/27 09:45:16;;;;;;;3.92;3.63;;;;;;;14.44;68.96;99340.81;5007043;28;103013;-64
2022/04/27 09:47:53;;;;;;;4.40;4.10;;;;;;;14.69;67.91;99330.91;5009290;28;103097;-64
2022/04/27 09:50:23;;;;;;;5.00;4.60;;;;;;;14.86;65.17;99333.91;4984523;28;104333;-64
2022/04/27 09:52:51;;;;;;;4.93;4.53;;;;;;;13.46;67.20;99345.69;5011085;28;104111;-63
2022/04/27 09:55:21;;;;;;;4.72;4.32;;;;;;;13.63;68.14;99339.13;5002796;28;103109;-64
2022/04/27 09:57:56;;;;;;;5.03;4.50;;;;;;;15.04;66.60;99342.25;5007183;28;102540;-64
2022/04/27 10:00:26;;;;;;;5.60;5.20;;;;;;;14.55;63.88;99345.28;5010723;28;102695;-65
2022/04/27 10:02:56;;;;;;;5.67;5.10;;;;;;;14.29;68.91;99344.63;4989367;28;104410;-65
2022/04/27 10:05:24;;;;;;;5.68;5.28;;;;;;;13.43;69.51;99345.91;4998177;28;103208;-64
2022/04/27 10:07:53;;;;;;;5.97;5.47;;;;;;;13.74;68.32;99347.13;5005163;28;102571;-64
2022/04/27 10:10:22;;;;;;;5.60;5.10;;;;;;;13.90;68.20;99348.50;5005943;28;103124;-64
2022/04/27 10:12:55;;;;;;;5.07;4.65;;;;;;;13.66;69.20;99344.22;5000048;28;103233;-64
2022/04/27 10:15:23;;;;;;;4.50;4.20;;;;;;;14.94;66.04;99341.28;5012145;28;104195;-64
2022/04/27 10:17:51;;;;;;;4.70;4.40;;;;;;;15.84;66.73;99337.41;5001821;28;102990;-65
2022/04/27 10:20:30;;;;;;;4.80;4.40;;;;;;;16.14;61.93;99343.66;4998461;28;103928;-64
2022/04/27 10:23:18;;;;;;;5.27;4.87;;;;;;;15.87;64.50;99347.81;5007981;28;103251;-64
2022/04/27 10:26:07;;;;;;;5.40;5.00;;;;;;;15.61;61.80;99345.50;5009412;28;103345;-64
2022/04/27 10:28:40;;;;;;;5.70;5.30;;;;;;;14.42;65.99;99350.72;5003509;28;102868;-64
2022/04/27 10:31:08;;;;;;;6.00;5.50;;;;;;;14.59;66.66;99352.06;5002147;28;102707;-65
2022/04/27 10:33:49;;;;;;;4.68;4.30;;;;;;;16.04;63.95;99352.56;5012479;27;103257;-65
2022/04/27 10:36:24;;;;;;;6.10;5.50;;;;;;;13.94;65.98;99351.78;5009986;28;103410;-64
2022/04/27 10:39:21;;;;;;;5.90;5.40;;;;;;;13.54;69.83;99353.06;5001097;28;102679;-64
2022/04/27 10:42:17;;;;;;;5.70;5.20;;;;;;;14.15;67.70;99351.94;5001077;28;103269;-64
2022/04/27 10:45:06;;;;;;;4.78;4.43;;;;;;;13.66;66.89;99346.88;5006011;28;103242;-72
2022/04/27 10:47:38;;;;;;;4.82;4.43;;;;;;;14.93;66.01;99350.25;5006362;28;103207;-72
2022/04/27 10:50:23;;;;;;;4.93;4.53;;;;;;;14.99;64.53;99352.38;5007564;28;102566;-72
2022/04/27 10:52:55;;;;;;;4.80;4.50;;;;;;;15.25;63.43;99353.81;5001846;28;103827;-72
2022/04/27 10:55:54;;;;;;;4.80;4.50;;;;;;;14.72;65.74;99358.09;5006228;28;104347;-72
2022/04/27 10:58:37;;;;;;;5.03;4.63;;;;;;;15.97;63.21;99354.91;4920895;28;103365;-72
2022/04/27 11:01:24;;;;;;;5.55;5.15;;;;;;;15.83;62.44;99357.06;5002008;28;102740;-72
2022/04/27 11:04:04;;;;;;;11.10;4.90;;;;;;;15.93;65.18;99350.81;5003615;28;102794;-72
2022/04/27 11:07:26;;;;;;;5.13;4.72;;;;;;;16.83;61.37;99353.75;5002682;28;103423;-72
2022/04/27 11:10:14;;;;;;;4.80;4.40;;;;;;;17.37;58.26;99354.22;5001780;28;103234;-72
2022/04/27 11:12:46;;;;;;;4.88;4.47;;;;;;;17.44;59.16;99350.00;5004475;28;102691;-72
2022/04/27 11:15:18;;;;;;;4.75;4.45;;;;;;;17.69;56.86;99343.28;5004348;28;102831;-72
2022/04/27 11:17:52;;;;;;;5.15;4.75;;;;;;;17.14;60.09;99348.25;5001449;28;104069;-72
2022/04/27 11:20:31;;;;;;;4.82;4.53;;;;;;;17.06;58.21;99345.41;4995376;28;103205;-64
2022/04/27 11:23:03;;;;;;;5.10;4.70;;;;;;;18.03;57.49;99347.22;4984511;28;102737;-64
2022/04/27 11:25:32;;;;;;;4.72;4.43;;;;;;;17.76;53.79;99345.28;4984395;28;103633;-72
2022/04/27 11:28:01;;;;;;;4.95;4.63;;;;;;;17.81;58.34;99350.19;5006345;28;103237;-64
2022/04/27 11:30:31;;;;;;;4.75;4.45;;;;;;;18.53;55.20;99343.34;4999674;28;103203;-64
2022/04/27 11:33:02;;;;;;;5.15;4.75;;;;;;;17.99;56.34;99347.66;5001779;28;102689;-64
2022/04/27 11:35:40;;;;;;;5.00;4.60;;;;;;;18.00;55.72;99342.16;5009601;28;102731;-64
2022/04/27 11:38:09;;;;;;;5.10;4.70;;;;;;;18.11;53.88;99339.31;4975568;28;104036;-64
2022/04/27 11:40:38;;;;;;;5.40;5.00;;;;;;;16.63;56.05;99337.66;4975440;28;104032;-64
2022/04/27 11:43:07;;;;;;;4.43;4.13;;;;;;;17.95;58.65;99334.56;4999409;28;103116;-72
2022/04/27 11:45:35;;;;;;;4.57;4.28;;;;;;;19.25;53.82;99333.75;4995831;28;103675;-72
2022/04/27 11:48:06;;;;;;;4.80;4.43;;;;;;;18.58;52.94;99337.59;4998111;28;103231;-72
2022/04/27 11:50:38;;;;;;;5.10;4.70;;;;;;;17.96;54.11;99336.25;4998119;28;104172;-64
2022/04/27 11:53:11;;;;;;;4.78;4.38;;;;;;;18.52;54.21;99332.81;4999734;28;102888;-65
2022/04/27 11:55:39;;;;;;;4.70;4.40;;;;;;;18.76;52.70;99337.63;5002667;28;104159;-72
2022/04/27 11:58:08;;;;;;;4.60;4.30;;;;;;;18.78;51.61;99344.53;4997780;28;103670;-65
2022/04/27 12:00:37;;;;;;;4.40;4.10;;;;;;;17.17;56.27;99341.78;5008266;28;104943;-72
2022/04/27 12:03:07;;;;;;;4.00;3.70;;;;;;;17.46;54.82;99344.53;5001042;28;102807;-64
2022/04/27 12:05:37;;;;;;;4.90;4.50;;;;;;;16.72;54.90;99336.88;4995060;28;102761;-65